Time,TemperatureF,DewpointF,PressureIn,WindDirection,WindDirectionDegrees,WindSpeedMPH,WindSpeedGustMPH,Humidity,HourlyPrecipIn,Conditions,Clouds,dailyrainin,SolarRadiationWatts/m^2,SoftwareType,DateUTC
2013-06-15 00:02:00,48.0,43.0,-100.00,North,358,3.0,7.0,83,0.00,,,0.00,0.000000,,2013-06-15 06:02:00,
2013-06-15 00:12:00,48.0,43.0,-100.00,North,358,3.0,7.0,83,0.00,,,0.00,0.000000,,2013-06-15 06:12:00,
2013-06-15 00:24:00,48.0,43.0,-100.00,North,358,3.0,7.0,83,0.00,,,0.00,0.000000,,2013-06-15 06:24:00,
2013-06-15 00:33:00,48.0,43.0,-100.00,North,358,3.0,7.0,83,0.00,,,0.00,0.000000,,2013-06-15 06:33:00,
2013-06-15 01:01:00,46.0,42.0,-100.00,NNE,17,3.0,9.0,86,0.00,,,0.00,0.000000,,2013-06-15 07:01:00,
2013-06-15 01:11:00,46.0,42.0,-100.00,NNE,17,3.0,9.0,86,0.00,,,0.00,0.000000,,2013-06-15 07:11:00,
2013-06-15 01:23:00,46.0,42.0,-100.00,NNE,17,3.0,9.0,86,0.00,,,0.00,0.000000,,2013-06-15 07:23:00,
2013-06-15 01:33:00,46.0,42.0,-100.00,NNE,17,3.0,9.0,86,0.00,,,0.00,0.000000,,2013-06-15 07:33:00,
2013-06-15 02:02:00,47.0,42.0,-100.00,North,11,2.0,7.0,83,0.00,,,0.00,0.000000,,2013-06-15 08:02:00,
2013-06-15 02:11:00,47.0,42.0,-100.00,North,11,2.0,7.0,83,0.00,,,0.00,0.000000,,2013-06-15 08:11:00,
2013-06-15 02:22:00,47.0,42.0,-100.00,North,11,2.0,7.0,83,0.00,,,0.00,0.000000,,2013-06-15 08:22:00,
2013-06-15 02:33:00,47.0,42.0,-100.00,North,11,2.0,7.0,83,0.00,,,0.00,0.000000,,2013-06-15 08:33:00,
2013-06-15 03:02:00,47.0,40.0,-100.00,NNW,335,2.0,8.0,77,0.00,,,0.00,0.000000,,2013-06-15 09:02:00,
2013-06-15 03:12:00,47.0,40.0,-100.00,NNW,335,2.0,8.0,77,0.00,,,0.00,0.000000,,2013-06-15 09:12:00,
2013-06-15 03:22:00,47.0,40.0,-100.00,NNW,335,2.0,8.0,77,0.00,,,0.00,0.000000,,2013-06-15 09:22:00,
2013-06-15 03:33:00,47.0,40.0,-100.00,NNW,335,2.0,8.0,77,0.00,,,0.00,0.000000,,2013-06-15 09:33:00,
2013-06-15 04:02:00,47.0,40.0,-100.00,NNE,32,1.0,5.0,76,0.00,,,0.00,0.000000,,2013-06-15 10:02:00,
2013-06-15 04:11:00,47.0,40.0,-100.00,NNE,32,1.0,5.0,76,0.00,,,0.00,0.000000,,2013-06-15 10:11:00,
2013-06-15 04:23:00,47.0,40.0,-100.00,NNE,32,1.0,5.0,76,0.00,,,0.00,0.000000,,2013-06-15 10:23:00,
2013-06-15 04:33:00,47.0,40.0,-100.00,NNE,32,1.0,5.0,76,0.00,,,0.00,0.000000,,2013-06-15 10:33:00,
2013-06-15 05:02:00,46.0,39.0,-100.00,NE,37,1.0,3.0,76,0.00,,,0.00,0.000000,,2013-06-15 11:02:00,
2013-06-15 05:11:00,46.0,39.0,-100.00,NE,37,1.0,3.0,76,0.00,,,0.00,0.000000,,2013-06-15 11:11:00,
2013-06-15 05:22:00,46.0,39.0,-100.00,NE,37,1.0,3.0,76,0.00,,,0.00,0.000000,,2013-06-15 11:22:00,
2013-06-15 05:33:00,46.0,39.0,-100.00,NE,37,1.0,3.0,76,0.00,,,0.00,0.000000,,2013-06-15 11:33:00,
2013-06-15 06:01:00,44.0,38.0,-100.00,NNE,13,0.0,2.0,78,0.00,,,0.00,3.000000,,2013-06-15 12:01:00,
2013-06-15 06:11:00,44.0,38.0,-100.00,NNE,13,0.0,2.0,78,0.00,,,0.00,3.000000,,2013-06-15 12:11:00,
2013-06-15 06:22:00,44.0,38.0,-100.00,NNE,13,0.0,2.0,78,0.00,,,0.00,3.000000,,2013-06-15 12:22:00,
2013-06-15 06:33:00,44.0,38.0,-100.00,NNE,13,0.0,2.0,78,0.00,,,0.00,3.000000,,2013-06-15 12:33:00,
2013-06-15 07:02:00,45.0,39.0,-100.00,North,352,1.0,3.0,79,0.00,,,0.00,45.000000,,2013-06-15 13:02:00,
2013-06-15 07:11:00,45.0,39.0,-100.00,North,352,1.0,3.0,79,0.00,,,0.00,45.000000,,2013-06-15 13:11:00,
2013-06-15 07:22:00,45.0,39.0,-100.00,North,352,1.0,3.0,79,0.00,,,0.00,45.000000,,2013-06-15 13:22:00,
2013-06-15 07:32:00,45.0,39.0,-100.00,North,352,1.0,3.0,79,0.00,,,0.00,45.000000,,2013-06-15 13:32:00,
2013-06-15 08:01:00,49.0,41.0,-100.00,WNW,299,0.0,2.0,73,0.00,,,0.00,90.000000,,2013-06-15 14:01:00,
2013-06-15 08:12:00,49.0,41.0,-100.00,WNW,299,0.0,2.0,73,0.00,,,0.00,90.000000,,2013-06-15 14:12:00,
2013-06-15 08:22:00,49.0,41.0,-100.00,WNW,299,0.0,2.0,73,0.00,,,0.00,90.000000,,2013-06-15 14:22:00,
2013-06-15 08:34:00,49.0,41.0,-100.00,WNW,299,0.0,2.0,73,0.00,,,0.00,90.000000,,2013-06-15 14:34:00,
2013-06-15 10:01:00,56.0,44.0,-100.00,SSW,193,4.0,8.0,63,0.00,,,0.00,358.000000,,2013-06-15 16:01:00,
2013-06-15 10:11:00,56.0,44.0,-100.00,SSW,193,4.0,8.0,63,0.00,,,0.00,358.000000,,2013-06-15 16:11:00,
2013-06-15 10:22:00,56.0,44.0,-100.00,SSW,193,4.0,8.0,63,0.00,,,0.00,358.000000,,2013-06-15 16:22:00,
2013-06-15 10:33:00,56.0,44.0,-100.00,SSW,193,4.0,8.0,63,0.00,,,0.00,358.000000,,2013-06-15 16:33:00,
2013-06-15 11:02:00,61.0,44.0,-100.00,SSW,196,5.0,11.0,53,0.00,,,0.00,819.000000,,2013-06-15 17:02:00,
2013-06-15 11:12:00,61.0,44.0,-100.00,SSW,196,5.0,11.0,53,0.00,,,0.00,819.000000,,2013-06-15 17:12:00,
2013-06-15 11:21:00,61.0,44.0,-100.00,SSW,196,5.0,11.0,53,0.00,,,0.00,819.000000,,2013-06-15 17:21:00,
2013-06-15 11:32:00,61.0,44.0,-100.00,SSW,196,5.0,11.0,53,0.00,,,0.00,819.000000,,2013-06-15 17:32:00,
2013-06-15 12:01:00,60.0,43.0,-100.00,SW,221,5.0,12.0,54,0.00,,,0.00,828.000000,,2013-06-15 18:01:00,
2013-06-15 12:12:00,60.0,43.0,-100.00,SW,221,5.0,12.0,54,0.00,,,0.00,828.000000,,2013-06-15 18:12:00,
2013-06-15 12:22:00,60.0,43.0,-100.00,SW,221,5.0,12.0,54,0.00,,,0.00,828.000000,,2013-06-15 18:22:00,
2013-06-15 12:32:00,60.0,43.0,-100.00,SW,221,5.0,12.0,54,0.00,,,0.00,828.000000,,2013-06-15 18:32:00,
2013-06-15 13:01:00,62.0,42.0,-100.00,WSW,242,4.0,11.0,47,0.00,,,0.00,975.000000,,2013-06-15 19:01:00,
2013-06-15 13:11:00,62.0,42.0,-100.00,WSW,242,4.0,11.0,47,0.00,,,0.00,975.000000,,2013-06-15 19:11:00,
2013-06-15 13:22:00,62.0,42.0,-100.00,WSW,242,4.0,11.0,47,0.00,,,0.00,975.000000,,2013-06-15 19:22:00,
2013-06-15 13:33:00,62.0,42.0,-100.00,WSW,242,4.0,11.0,47,0.00,,,0.00,975.000000,,2013-06-15 19:33:00,
2013-06-15 14:02:00,65.0,43.0,-100.00,South,188,6.0,11.0,44,0.00,,,0.00,959.000000,,2013-06-15 20:02:00,
2013-06-15 14:11:00,65.0,43.0,-100.00,South,188,6.0,11.0,44,0.00,,,0.00,959.000000,,2013-06-15 20:11:00,
2013-06-15 14:22:00,65.0,43.0,-100.00,South,188,6.0,11.0,44,0.00,,,0.00,959.000000,,2013-06-15 20:22:00,
2013-06-15 14:33:00,65.0,43.0,-100.00,South,188,6.0,11.0,44,0.00,,,0.00,959.000000,,2013-06-15 20:33:00,
2013-06-15 15:01:00,65.0,38.0,-100.00,WNW,287,5.0,11.0,37,0.00,,,0.00,1058.000000,,2013-06-15 21:01:00,
2013-06-15 15:12:00,65.0,38.0,-100.00,WNW,287,5.0,11.0,37,0.00,,,0.00,1058.000000,,2013-06-15 21:12:00,
2013-06-15 15:22:00,65.0,38.0,-100.00,WNW,287,5.0,11.0,37,0.00,,,0.00,1058.000000,,2013-06-15 21:22:00,
2013-06-15 15:33:00,65.0,38.0,-100.00,WNW,287,5.0,11.0,37,0.00,,,0.00,1058.000000,,2013-06-15 21:33:00,
2013-06-15 16:01:00,65.0,39.0,-100.00,West,264,5.0,11.0,39,0.00,,,0.00,818.000000,,2013-06-15 22:01:00,
2013-06-15 16:11:00,65.0,39.0,-100.00,West,264,5.0,11.0,39,0.00,,,0.00,818.000000,,2013-06-15 22:11:00,
2013-06-15 16:22:00,65.0,39.0,-100.00,West,264,5.0,11.0,39,0.00,,,0.00,818.000000,,2013-06-15 22:22:00,
2013-06-15 16:32:00,65.0,39.0,-100.00,West,264,5.0,11.0,39,0.00,,,0.00,818.000000,,2013-06-15 22:32:00,
2013-06-15 17:02:00,65.0,36.0,-100.00,WSW,251,5.0,10.0,34,0.00,,,0.00,276.000000,,2013-06-15 23:02:00,
2013-06-15 17:11:00,65.0,36.0,-100.00,WSW,251,5.0,10.0,34,0.00,,,0.00,276.000000,,2013-06-15 23:11:00,
2013-06-15 17:22:00,65.0,36.0,-100.00,WSW,251,5.0,10.0,34,0.00,,,0.00,276.000000,,2013-06-15 23:22:00,
2013-06-15 17:33:00,65.0,36.0,-100.00,WSW,251,5.0,10.0,34,0.00,,,0.00,276.000000,,2013-06-15 23:33:00,
2013-06-15 18:01:00,64.0,35.0,-100.00,SSW,211,5.0,10.0,34,0.00,,,0.00,508.000000,,2013-06-16 00:01:00,
2013-06-15 18:11:00,64.0,35.0,-100.00,SSW,211,5.0,10.0,34,0.00,,,0.00,508.000000,,2013-06-16 00:11:00,
2013-06-15 18:22:00,64.0,35.0,-100.00,SSW,211,5.0,10.0,34,0.00,,,0.00,508.000000,,2013-06-16 00:22:00,
2013-06-15 18:33:00,64.0,35.0,-100.00,SSW,211,5.0,10.0,34,0.00,,,0.00,508.000000,,2013-06-16 00:33:00,
2013-06-15 19:01:00,64.0,34.0,-100.00,SW,224,3.0,8.0,33,0.00,,,0.00,167.000000,,2013-06-16 01:01:00,
2013-06-15 19:11:00,64.0,34.0,-100.00,SW,224,3.0,8.0,33,0.00,,,0.00,167.000000,,2013-06-16 01:11:00,
2013-06-15 19:22:00,64.0,34.0,-100.00,SW,224,3.0,8.0,33,0.00,,,0.00,167.000000,,2013-06-16 01:22:00,
2013-06-15 19:33:00,64.0,34.0,-100.00,SW,224,3.0,8.0,33,0.00,,,0.00,167.000000,,2013-06-16 01:33:00,
2013-06-15 20:01:00,65.0,34.0,-100.00,South,175,1.0,6.0,31,0.00,,,0.00,152.000000,,2013-06-16 02:01:00,
2013-06-15 20:12:00,65.0,34.0,-100.00,South,175,1.0,6.0,31,0.00,,,0.00,152.000000,,2013-06-16 02:12:00,
2013-06-15 20:22:00,65.0,34.0,-100.00,South,175,1.0,6.0,31,0.00,,,0.00,152.000000,,2013-06-16 02:22:00,
2013-06-15 20:33:00,65.0,34.0,-100.00,South,175,1.0,6.0,31,0.00,,,0.00,152.000000,,2013-06-16 02:33:00,
2013-06-15 21:02:00,55.0,37.0,-100.00,North,11,1.0,3.0,50,0.00,,,-99.99,24.000000,,2013-06-16 03:02:00,
2013-06-15 21:12:00,55.0,37.0,-100.00,North,11,1.0,3.0,50,0.00,,,-99.99,24.000000,,2013-06-16 03:12:00,
2013-06-15 21:22:00,55.0,37.0,-100.00,North,11,1.0,3.0,50,0.00,,,-99.99,24.000000,,2013-06-16 03:22:00,
2013-06-15 21:33:00,55.0,37.0,-100.00,North,11,1.0,3.0,50,0.00,,,-99.99,24.000000,,2013-06-16 03:33:00,
2013-06-15 22:02:00,46.0,37.0,-100.00,North,8,2.0,3.0,71,0.00,,,0.00,2.000000,,2013-06-16 04:02:00,
2013-06-15 22:12:00,46.0,37.0,-100.00,North,8,2.0,3.0,71,0.00,,,0.00,2.000000,,2013-06-16 04:12:00,
2013-06-15 22:23:00,46.0,37.0,-100.00,North,8,2.0,3.0,71,0.00,,,0.00,2.000000,,2013-06-16 04:23:00,
2013-06-15 22:33:00,46.0,37.0,-100.00,North,8,2.0,3.0,71,0.00,,,0.00,2.000000,,2013-06-16 04:33:00,
2013-06-15 23:01:00,49.0,41.0,-100.00,NNE,28,1.0,5.0,75,0.00,,,0.00,0.000000,,2013-06-16 05:01:00,
2013-06-15 23:11:00,49.0,41.0,-100.00,NNE,28,1.0,5.0,75,0.00,,,0.00,0.000000,,2013-06-16 05:11:00,
2013-06-15 23:22:00,49.0,41.0,-100.00,NNE,28,1.0,5.0,75,0.00,,,0.00,0.000000,,2013-06-16 05:22:00,
2013-06-15 23:34:00,49.0,41.0,-100.00,NNE,28,1.0,5.0,75,0.00,,,0.00,0.000000,,2013-06-16 05:34:00,